Time;durP1;ratioP1;P1;durP2;ratioP2;P2;SDS_P1;SDS_P2;PMS_P1;PMS_P2;Temp;Humidity;BMP_temperature;BMP_pressure;BME280_temperature;BME280_humidity;BME280_pressure;Samples;Min_cycle;Max_cycle;Signal;HPM_P1;HPM_P2
2023/07/27 00:01:50;;;;;;;4.70;2.63;;;12.70;97.00;;;;;;5089177;28;20467;-85
2023/07/27 00:04:18;;;;;;;4.95;2.85;;;12.70;97.20;;;;;;5091313;28;20040;-85
2023/07/27 00:06:46;;;;;;;8.80;2.95;;;12.80;97.60;;;;;;5084766;28;20144;-84
2023/07/27 00:09:13;;;;;;;7.10;2.72;;;12.80;97.30;;;;;;5089579;28;20134;-85
2023/07/27 00:11:40;;;;;;;9.13;2.47;;;12.80;97.20;;;;;;5085011;28;20102;-82
2023/07/27 00:14:08;;;;;;;5.57;2.80;;;12.80;97.40;;;;;;5087143;28;20048;-82
2023/07/27 00:16:34;;;;;;;5.43;2.88;;;12.70;97.40;;;;;;5081401;28;20044;-82
2023/07/27 00:19:02;;;;;;;6.95;2.58;;;12.70;97.50;;;;;;5083613;28;20048;-83
2023/07/27 00:21:29;;;;;;;5.70;2.83;;;12.70;97.10;;;;;;5089390;28;20044;-82
2023/07/27 00:23:56;;;;;;;7.20;3.00;;;12.60;97.70;;;;;;5091322;28;20051;-82
2023/07/27 00:26:23;;;;;;;7.10;2.80;;;12.60;97.80;;;;;;5090260;28;20055;-81
2023/07/27 00:28:50;;;;;;;6.70;2.88;;;12.70;97.80;;;;;;5084648;28;20143;-82
2023/07/27 00:31:17;;;;;;;9.07;3.20;;;12.70;97.60;;;;;;5090576;28;20051;-83
2023/07/27 00:33:44;;;;;;;6.63;2.92;;;12.70;97.50;;;;;;5082701;28;20094;-82
2023/07/27 00:36:11;;;;;;;8.68;2.40;;;12.70;97.30;;;;;;5090561;28;20113;-82
2023/07/27 00:42:18;;;;;;;4.10;2.30;;;12.60;97.20;;;;;;5081657;28;20040;-82
2023/07/27 00:44:46;;;;;;;5.25;2.83;;;12.60;97.50;;;;;;5084854;28;20097;-82
2023/07/27 00:47:12;;;;;;;6.80;3.00;;;12.60;97.80;;;;;;5089836;28;20603;-82
2023/07/27 00:49:39;;;;;;;5.60;2.38;;;12.60;97.80;;;;;;5081330;28;20465;-82
2023/07/27 00:52:08;;;;;;;5.68;2.90;;;12.50;97.70;;;;;;5078660;28;20053;-82
2023/07/27 00:54:35;;;;;;;9.98;2.78;;;12.50;97.80;;;;;;5083436;28;20044;-82
2023/07/27 00:57:03;;;;;;;4.82;2.45;;;12.40;97.50;;;;;;5081410;28;20053;-82
2023/07/27 00:59:30;;;;;;;7.85;2.72;;;12.40;97.70;;;;;;5087191;28;20127;-82
2023/07/27 01:01:57;;;;;;;8.15;2.75;;;12.30;97.90;;;;;;5083168;28;20048;-82
2023/07/27 01:04:25;;;;;;;5.15;2.85;;;12.30;97.90;;;;;;5079116;28;20396;-82
2023/07/27 01:06:52;;;;;;;4.80;2.75;;;12.30;98.00;;;;;;5084617;28;20834;-82
2023/07/27 01:09:19;;;;;;;13.35;3.42;;;12.20;98.10;;;;;;5086383;28;20128;-82
2023/07/27 01:11:58;;;;;;;7.32;3.15;;;12.20;97.90;;;;;;5089844;28;20514;-82
2023/07/27 01:14:42;;;;;;;8.85;3.17;;;12.20;97.90;;;;;;5084620;28;20147;-82
2023/07/27 01:17:20;;;;;;;6.20;2.15;;;12.20;98.10;;;;;;5085234;28;20430;-82
2023/07/27 01:20:16;;;;;;;5.82;2.80;;;12.20;98.10;;;;;;5085099;28;20079;-81
2023/07/27 01:23:07;;;;;;;4.88;2.85;;;12.20;98.10;;;;;;5083450;28;20053;-82
2023/07/27 01:26:06;;;;;;;6.47;3.10;;;12.20;98.10;;;;;;5086135;28;20047;-82
2023/07/27 01:28:51;;;;;;;6.13;2.72;;;12.20;98.50;;;;;;5083996;28;20101;-82
2023/07/27 01:31:25;;;;;;;7.32;3.38;;;12.20;98.50;;;;;;5083901;28;20061;-86
2023/07/27 01:34:02;;;;;;;7.80;3.28;;;12.20;98.50;;;;;;5075663;28;20086;-86
2023/07/27 01:36:36;;;;;;;9.93;3.47;;;12.20;98.70;;;;;;5080953;28;20051;-86
2023/07/27 01:39:07;;;;;;;7.85;3.50;;;12.20;98.70;;;;;;5083211;28;20109;-86
2023/07/27 01:41:36;;;;;;;10.55;3.00;;;12.10;98.50;;;;;;5079372;28;20052;-85
2023/07/27 01:44:05;;;;;;;7.57;2.95;;;12.20;98.60;;;;;;5082522;28;20951;-85
2023/07/27 01:46:32;;;;;;;6.25;2.90;;;12.20;98.70;;;;;;5085606;28;20079;-84
2023/07/27 01:49:00;;;;;;;8.10;2.88;;;12.20;98.60;;;;;;5075804;28;20409;-84
2023/07/27 01:51:28;;;;;;;4.28;2.33;;;12.30;98.50;;;;;;5086949;28;20135;-85
2023/07/27 01:53:56;;;;;;;9.20;3.15;;;12.30;98.30;;;;;;5079775;28;20135;-84
2023/07/27 01:56:25;;;;;;;7.82;3.00;;;12.30;98.30;;;;;;5086130;28;20075;-85
2023/07/27 01:58:53;;;;;;;4.53;2.75;;;12.40;98.00;;;;;;5072716;28;20058;-85
2023/07/27 02:01:20;;;;;;;5.75;2.70;;;12.40;98.20;;;;;;5070939;28;20050;-85
2023/07/27 02:03:48;;;;;;;5.25;2.88;;;12.40;97.90;;;;;;5076549;28;20560;-85
2023/07/27 02:06:15;;;;;;;5.15;2.70;;;12.40;97.60;;;;;;5084463;28;20078;-85
2023/07/27 02:08:42;;;;;;;4.18;2.70;;;12.50;97.60;;;;;;5081109;28;20044;-86
2023/07/27 02:11:10;;;;;;;6.78;3.30;;;12.50;97.40;;;;;;5085208;28;20047;-84
2023/07/27 02:14:24;;;;;;;9.43;2.88;;;12.50;97.30;;;;;;5089446;28;20044;-84
2023/07/27 02:17:00;;;;;;;4.90;2.67;;;12.50;97.10;;;;;;5008464;28;20584;-84
2023/07/27 02:19:29;;;;;;;10.38;2.35;;;12.50;97.20;;;;;;5027341;28;20045;-84
2023/07/27 02:21:58;;;;;;;4.57;2.33;;;12.50;97.40;;;;;;5061595;28;20040;-86
2023/07/27 02:24:26;;;;;;;6.47;1.98;;;12.50;97.20;;;;;;5077797;28;20481;-86
2023/07/27 02:26:55;;;;;;;6.47;2.25;;;12.50;96.60;;;;;;5085866;28;20484;-85
2023/07/27 02:29:22;;;;;;;4.32;2.10;;;12.40;96.80;;;;;;5087036;28;21930;-84
2023/07/27 02:31:48;;;;;;;5.88;1.95;;;12.40;96.60;;;;;;5077720;28;20527;-84
2023/07/27 02:34:15;;;;;;;4.50;1.83;;;12.30;96.90;;;;;;5086583;28;20052;-84
2023/07/27 02:36:42;;;;;;;4.60;1.85;;;12.30;96.70;;;;;;5086577;28;20084;-84
2023/07/27 02:39:09;;;;;;;4.28;2.38;;;12.30;96.70;;;;;;5080365;28;20079;-85
2023/07/27 02:41:36;;;;;;;4.95;2.10;;;12.20;97.00;;;;;;5089413;28;20040;-83
2023/07/27 02:44:03;;;;;;;3.85;2.00;;;12.20;96.70;;;;;;5087649;28;20040;-83
2023/07/27 02:46:29;;;;;;;3.28;2.10;;;12.20;97.10;;;;;;5086402;28;20123;-85
2023/07/27 02:48:57;;;;;;;10.18;2.55;;;12.20;97.00;;;;;;5085911;28;20036;-84
2023/07/27 02:51:24;;;;;;;7.88;2.35;;;12.20;96.80;;;;;;5080637;28;20102;-84
2023/07/27 02:53:51;;;;;;;3.67;1.88;;;12.20;96.50;;;;;;5079663;28;20097;-84
2023/07/27 02:56:18;;;;;;;3.10;1.90;;;12.20;96.50;;;;;;5086632;28;20074;-84
2023/07/27 02:58:44;;;;;;;7.43;1.95;;;12.20;96.20;;;;;;5086872;28;20056;-84
2023/07/27 03:01:12;;;;;;;5.63;1.63;;;12.30;96.20;;;;;;5082562;28;20040;-84
2023/07/27 03:03:39;;;;;;;2.42;1.70;;;12.30;96.30;;;;;;5080398;28;20781;-85
2023/07/27 03:06:05;;;;;;;2.60;1.73;;;12.30;96.50;;;;;;5088390;28;20490;-85
2023/07/27 03:08:32;;;;;;;10.52;2.10;;;12.30;96.20;;;;;;5088082;28;20097;-84
2023/07/27 03:11:04;;;;;;;2.75;1.52;;;12.20;96.30;;;;;;5080994;28;20044;-84
2023/07/27 03:13:32;;;;;;;3.08;1.70;;;12.20;96.30;;;;;;5079844;28;20076;-85
2023/07/27 03:16:01;;;;;;;3.65;1.55;;;12.10;96.10;;;;;;5080997;28;20132;-85
2023/07/27 03:18:28;;;;;;;3.65;1.67;;;12.10;96.40;;;;;;5085870;28;20047;-85
2023/07/27 03:20:55;;;;;;;3.10;1.77;;;12.10;96.50;;;;;;5086338;28;20097;-85
2023/07/27 03:23:22;;;;;;;2.95;1.95;;;12.00;96.80;;;;;;5086825;28;20066;-84
2023/07/27 03:25:49;;;;;;;3.38;1.85;;;12.00;97.20;;;;;;5084948;28;20464;-84
2023/07/27 03:28:16;;;;;;;4.38;1.60;;;12.00;97.50;;;;;;5090824;28;20078;-84
2023/07/27 03:30:43;;;;;;;4.65;2.50;;;12.00;97.50;;;;;;5087059;28;20052;-85
2023/07/27 03:33:10;;;;;;;4.53;2.08;;;12.00;97.80;;;;;;5092227;28;20131;-84
2023/07/27 03:35:37;;;;;;;8.13;2.58;;;12.00;98.00;;;;;;5090148;28;20044;-85
2023/07/27 03:38:04;;;;;;;4.75;2.40;;;12.00;98.20;;;;;;5089426;28;20643;-85
2023/07/27 03:40:30;;;;;;;7.68;2.17;;;12.00;98.40;;;;;;5087956;28;20047;-85
2023/07/27 03:42:57;;;;;;;3.92;2.50;;;12.00;98.30;;;;;;5089884;28;20048;-84
2023/07/27 03:45:24;;;;;;;4.85;2.75;;;12.00;98.70;;;;;;5082160;28;20072;-82
2023/07/27 03:47:51;;;;;;;6.38;3.10;;;12.00;99.10;;;;;;5089134;28;20078;-82
2023/07/27 03:50:18;;;;;;;5.55;2.58;;;11.90;99.50;;;;;;5087942;28;20234;-85
2023/07/27 03:52:45;;;;;;;8.90;2.80;;;11.90;99.90;;;;;;5072602;28;20135;-82
2023/07/27 03:55:12;;;;;;;7.30;2.80;;;11.90;100.00;;;;;;5085670;28;20064;-82
2023/07/27 03:57:39;;;;;;;6.10;3.60;;;12.00;100.00;;;;;;5089704;28;20059;-85
2023/07/27 04:00:07;;;;;;;10.18;3.60;;;11.90;100.00;;;;;;5089790;28;20048;-83
2023/07/27 04:02:34;;;;;;;5.93;3.25;;;12.00;100.00;;;;;;5076541;28;20947;-83
2023/07/27 04:05:01;;;;;;;5.82;3.30;;;12.00;100.00;;;;;;5082506;28;20044;-79
2023/07/27 04:07:28;;;;;;;9.10;2.95;;;12.00;100.00;;;;;;5083882;28;20040;-80
2023/07/27 04:09:55;;;;;;;11.38;3.38;;;12.00;100.00;;;;;;5083021;28;20056;-79
2023/07/27 04:12:23;;;;;;;6.68;3.85;;;12.00;100.00;;;;;;5081589;28;20044;-79
2023/07/27 04:14:50;;;;;;;7.53;3.72;;;12.00;100.00;;;;;;5088523;28;20776;-81
2023/07/27 04:17:17;;;;;;;9.45;3.70;;;12.00;100.00;;;;;;5091316;28;20752;-81
2023/07/27 04:19:44;;;;;;;10.75;4.80;;;12.00;100.00;;;;;;5082375;28;20058;-81
2023/07/27 04:22:10;;;;;;;10.38;4.53;;;12.00;100.00;;;;;;5082987;28;20040;-83
2023/07/27 04:24:38;;;;;;;8.40;4.22;;;12.10;100.00;;;;;;5078994;28;20050;-75
2023/07/27 04:27:05;;;;;;;8.07;4.35;;;12.10;100.00;;;;;;5086650;28;20070;-80
2023/07/27 04:29:32;;;;;;;10.85;4.07;;;12.10;100.00;;;;;;5082731;28;20043;-81
2023/07/27 04:31:59;;;;;;;13.95;4.35;;;12.10;100.00;;;;;;5090199;28;20047;-86
2023/07/27 04:34:26;;;;;;;10.90;4.30;;;12.20;100.00;;;;;;5086264;28;20163;-81
2023/07/27 04:36:53;;;;;;;9.23;4.65;;;12.20;100.00;;;;;;5090812;28;20109;-81
2023/07/27 04:39:20;;;;;;;13.07;4.47;;;12.20;100.00;;;;;;5081811;28;20036;-83
2023/07/27 04:41:47;;;;;;;15.25;4.53;;;12.30;100.00;;;;;;5088100;28;20043;-87
2023/07/27 04:44:14;;;;;;;11.48;5.00;;;12.30;100.00;;;;;;5086142;28;20143;-86
2023/07/27 04:46:41;;;;;;;13.63;5.80;;;12.40;100.00;;;;;;5083238;28;20094;-86
2023/07/27 04:49:07;;;;;;;13.35;6.00;;;12.40;100.00;;;;;;5086255;28;20040;-84
2023/07/27 04:51:35;;;;;;;13.65;4.90;;;12.40;100.00;;;;;;5084075;28;20044;-84
2023/07/27 04:54:02;;;;;;;11.85;4.78;;;12.50;100.00;;;;;;5085438;28;20044;-83
2023/07/27 04:56:29;;;;;;;14.77;4.82;;;12.50;99.90;;;;;;5089854;28;20043;-84
2023/07/27 04:58:56;;;;;;;13.65;5.20;;;12.60;100.00;;;;;;5088443;28;20075;-83
2023/07/27 05:01:22;;;;;;;19.27;5.20;;;12.70;99.90;;;;;;5075483;28;20068;-83
2023/07/27 05:03:51;;;;;;;10.20;5.45;;;12.70;99.40;;;;;;5078396;28;20062;-83
2023/07/27 05:06:18;;;;;;;21.10;5.68;;;12.80;99.50;;;;;;5076902;28;20049;-84
2023/07/27 05:08:45;;;;;;;8.02;5.30;;;12.90;99.60;;;;;;5084712;28;20048;-83
2023/07/27 05:11:12;;;;;;;10.20;5.00;;;12.90;99.40;;;;;;5081008;28;20110;-84
2023/07/27 05:13:39;;;;;;;12.30;6.03;;;13.00;99.10;;;;;;5091985;28;20496;-84
2023/07/27 05:16:06;;;;;;;14.38;5.25;;;13.10;99.40;;;;;;5091417;28;20044;-84
2023/07/27 05:18:33;;;;;;;16.85;5.85;;;13.20;99.10;;;;;;5086927;28;20048;-83
2023/07/27 05:21:00;;;;;;;10.27;5.90;;;13.30;98.20;;;;;;5080871;28;20775;-83
2023/07/27 05:23:27;;;;;;;9.65;5.32;;;13.40;97.80;;;;;;5090356;28;20441;-83
2023/07/27 05:25:54;;;;;;;12.82;5.78;;;13.40;97.60;;;;;;5073076;28;20091;-84
2023/07/27 05:28:21;;;;;;;15.38;6.28;;;13.50;97.30;;;;;;5089256;28;20067;-83
2023/07/27 05:30:48;;;;;;;10.27;5.05;;;13.60;97.10;;;;;;5087385;28;20048;-84
2023/07/27 05:33:15;;;;;;;13.48;5.50;;;13.70;96.70;;;;;;5083394;28;20123;-83
2023/07/27 05:35:49;;;;;;;12.15;4.85;;;13.70;96.40;;;;;;5088050;28;20079;-83
2023/07/27 05:38:20;;;;;;;13.13;5.57;;;13.80;95.80;;;;;;5078977;28;20079;-83
2023/07/27 05:40:46;;;;;;;13.25;5.50;;;13.90;96.10;;;;;;5081261;28;20072;-84
2023/07/27 05:43:13;;;;;;;8.77;4.80;;;14.00;95.70;;;;;;5073869;28;20127;-84
2023/07/27 05:45:40;;;;;;;7.75;4.70;;;14.00;95.10;;;;;;5078047;28;20063;-84
2023/07/27 05:48:07;;;;;;;12.65;4.57;;;14.10;94.60;;;;;;5089690;28;20050;-84
2023/07/27 05:50:34;;;;;;;15.07;5.05;;;14.20;95.00;;;;;;5083080;28;20497;-83
2023/07/27 05:53:01;;;;;;;8.55;4.90;;;14.30;94.00;;;;;;5089837;28;20441;-83
2023/07/27 05:55:28;;;;;;;15.10;5.15;;;14.40;94.00;;;;;;5088616;28;21392;-84
2023/07/27 05:57:55;;;;;;;9.88;4.43;;;14.50;93.90;;;;;;5086724;28;20054;-84
2023/07/27 06:00:32;;;;;;;11.75;4.38;;;14.50;93.80;;;;;;5087728;28;20119;-84
2023/07/27 06:02:59;;;;;;;7.50;4.80;;;14.70;93.60;;;;;;5088866;28;20059;-85
2023/07/27 06:05:26;;;;;;;16.83;4.68;;;14.70;93.40;;;;;;5079670;28;20048;-84
2023/07/27 06:07:53;;;;;;;10.65;4.80;;;14.80;92.10;;;;;;5090736;28;20101;-84
2023/07/27 06:10:20;;;;;;;7.80;4.50;;;14.90;92.30;;;;;;5078166;28;20048;-84
2023/07/27 06:12:47;;;;;;;10.02;4.28;;;15.10;92.00;;;;;;5085726;28;20507;-84
2023/07/27 06:15:13;;;;;;;20.75;8.50;;;15.20;90.80;;;;;;5084773;28;20055;-84
2023/07/27 06:17:40;;;;;;;13.95;5.03;;;15.40;90.90;;;;;;5089582;28;20087;-85
2023/07/27 06:20:08;;;;;;;10.30;4.43;;;15.60;90.40;;;;;;5088128;28;20044;-83
2023/07/27 06:22:35;;;;;;;8.98;4.13;;;15.90;89.40;;;;;;5088767;28;20552;-84
2023/07/27 06:25:02;;;;;;;8.35;3.70;;;16.20;88.70;;;;;;5079729;28;20086;-85
2023/07/27 06:27:29;;;;;;;5.32;3.42;;;16.50;86.50;;;;;;5081280;28;20044;-84
2023/07/27 06:29:56;;;;;;;7.55;4.10;;;16.70;85.70;;;;;;5085221;28;20540;-85
2023/07/27 06:32:22;;;;;;;10.65;3.50;;;17.10;84.40;;;;;;5079572;28;20055;-84
2023/07/27 06:34:50;;;;;;;8.65;3.30;;;17.40;83.90;;;;;;5075109;28;20066;-85
2023/07/27 06:37:16;;;;;;;6.18;2.75;;;17.70;82.90;;;;;;5078579;28;20105;-84
2023/07/27 06:39:43;;;;;;;6.10;3.05;;;18.00;80.10;;;;;;5076993;28;20488;-84
2023/07/27 06:42:10;;;;;;;7.57;2.75;;;18.30;80.60;;;;;;5078639;28;20044;-85
2023/07/27 06:44:37;;;;;;;6.57;2.75;;;18.70;78.10;;;;;;5087260;28;20070;-84
2023/07/27 06:47:04;;;;;;;7.13;2.83;;;19.10;74.50;;;;;;5076806;28;20052;-84
2023/07/27 06:49:33;;;;;;;5.82;2.92;;;19.30;75.50;;;;;;5080441;28;20056;-84
2023/07/27 06:52:00;;;;;;;12.00;3.13;;;19.50;74.10;;;;;;5080560;28;20558;-85
2023/07/27 06:54:27;;;;;;;6.65;2.80;;;20.10;72.30;;;;;;5084357;28;20052;-85
2023/07/27 06:56:54;;;;;;;7.55;2.58;;;20.50;72.00;;;;;;5088973;28;20052;-85
2023/07/27 06:59:20;;;;;;;9.45;2.85;;;21.10;69.90;;;;;;5090476;28;20131;-82
2023/07/27 07:01:47;;;;;;;7.13;3.22;;;21.60;68.90;;;;;;5090951;28;20048;-82
2023/07/27 07:04:14;;;;;;;7.90;2.90;;;22.30;66.10;;;;;;5078318;28;20146;-82
2023/07/27 07:06:41;;;;;;;10.48;2.65;;;22.30;65.60;;;;;;5080176;28;20056;-82
2023/07/27 07:09:10;;;;;;;8.38;3.20;;;22.90;64.70;;;;;;5085983;28;20048;-83
2023/07/27 07:11:37;;;;;;;5.50;2.90;;;23.30;62.00;;;;;;5081779;28;20132;-82
2023/07/27 07:14:03;;;;;;;9.43;3.50;;;23.60;61.80;;;;;;5086762;28;20143;-83
2023/07/27 07:16:30;;;;;;;4.50;2.58;;;24.20;61.20;;;;;;5093169;28;20039;-83
2023/07/27 07:18:58;;;;;;;7.20;2.55;;;23.90;58.90;;;;;;5077883;28;20090;-83
2023/07/27 07:21:25;;;;;;;4.65;2.45;;;23.70;61.30;;;;;;5083389;28;20488;-83
2023/07/27 07:23:51;;;;;;;9.48;3.08;;;23.40;62.50;;;;;;5089431;28;20055;-82
2023/07/27 07:26:18;;;;;;;5.70;3.00;;;23.00;62.50;;;;;;5085641;28;20054;-83
2023/07/27 07:28:45;;;;;;;6.68;2.55;;;23.10;62.90;;;;;;5088240;28;20238;-82
2023/07/27 07:31:12;;;;;;;4.72;2.63;;;22.40;65.10;;;;;;5085894;28;20689;-82
2023/07/27 07:33:39;;;;;;;7.88;3.20;;;22.50;65.10;;;;;;5085864;28;20056;-83
2023/07/27 07:36:06;;;;;;;7.03;2.95;;;23.00;64.90;;;;;;5083094;28;20044;-83
2023/07/27 07:38:33;;;;;;;9.68;3.10;;;23.50;63.40;;;;;;5086658;28;20129;-82
2023/07/27 07:41:00;;;;;;;8.52;3.15;;;23.60;61.50;;;;;;5084369;28;20052;-82
2023/07/27 07:43:26;;;;;;;5.60;2.92;;;23.40;63.40;;;;;;5090299;28;20044;-83
2023/07/27 07:45:53;;;;;;;6.53;3.00;;;23.40;64.90;;;;;;5088611;28;20060;-83
2023/07/27 07:48:20;;;;;;;5.40;3.17;;;23.90;63.30;;;;;;5087425;28;20070;-82
2023/07/27 07:50:47;;;;;;;5.22;2.90;;;23.70;61.70;;;;;;5087178;28;20099;-82
2023/07/27 07:53:14;;;;;;;7.50;3.00;;;23.80;60.00;;;;;;5085754;28;20936;-82
2023/07/27 07:55:55;;;;;;;11.40;2.92;;;23.50;61.10;;;;;;5079033;28;20048;-82
2023/07/27 07:58:22;;;;;;;6.78;3.30;;;23.10;61.40;;;;;;5081791;28;20120;-82
2023/07/27 08:00:49;;;;;;;6.43;3.25;;;23.30;62.00;;;;;;5089804;28;20051;-82
2023/07/27 08:03:17;;;;;;;6.38;3.10;;;23.30;62.30;;;;;;5081701;28;20047;-82
2023/07/27 08:05:44;;;;;;;9.82;3.42;;;22.90;62.80;;;;;;5086357;28;20140;-82
2023/07/27 08:08:11;;;;;;;9.43;3.10;;;22.40;62.90;;;;;;5079739;28;20086;-81
2023/07/27 08:10:38;;;;;;;6.93;3.33;;;22.20;65.20;;;;;;5082037;28;20131;-83
2023/07/27 08:13:05;;;;;;;15.90;3.38;;;22.10;64.60;;;;;;5091524;28;20109;-82
2023/07/27 08:15:32;;;;;;;9.40;3.75;;;22.20;65.20;;;;;;5093055;28;20083;-82
2023/07/27 08:17:59;;;;;;;4.50;3.15;;;22.30;64.20;;;;;;5089188;28;20112;-82
2023/07/27 08:20:26;;;;;;;8.77;3.28;;;22.10;64.80;;;;;;5103618;22;20100;-80
2023/07/27 08:22:53;;;;;;;16.23;4.70;;;22.10;66.00;;;;;;5106194;28;20212;-80
2023/07/27 08:25:21;;;;;;;10.80;3.63;;;22.00;66.50;;;;;;5099888;28;20089;-80
2023/07/27 08:27:50;;;;;;;10.65;4.15;;;22.30;64.90;;;;;;5109679;28;20142;-80
2023/07/27 08:30:17;;;;;;;5.38;3.13;;;22.70;65.40;;;;;;5100469;28;20434;-80
2023/07/27 08:32:46;;;;;;;14.63;5.60;;;23.10;66.40;;;;;;5110104;28;20096;-80
2023/07/27 08:35:14;;;;;;;9.07;3.72;;;23.50;62.10;;;;;;5101555;28;20399;-80
2023/07/27 08:37:41;;;;;;;8.10;3.30;;;23.70;61.70;;;;;;5112095;28;20078;-80
2023/07/27 08:40:08;;;;;;;7.75;3.33;;;23.50;61.10;;;;;;5109678;28;20131;-79
2023/07/27 08:42:37;;;;;;;8.52;3.50;;;23.50;61.50;;;;;;5102855;28;20044;-79
2023/07/27 08:45:05;;;;;;;7.72;3.53;;;23.00;61.50;;;;;;5095886;28;20511;-80
2023/07/27 08:47:33;;;;;;;12.02;4.25;;;22.90;63.40;;;;;;5109685;28;20051;-80
2023/07/27 08:50:01;;;;;;;10.50;4.35;;;23.00;62.70;;;;;;5103278;28;20064;-80
2023/07/27 08:52:30;;;;;;;8.07;3.63;;;22.90;64.30;;;;;;5106124;28;20614;-80
2023/07/27 08:54:56;;;;;;;12.02;3.55;;;23.00;62.50;;;;;;5112082;28;20048;-81
2023/07/27 08:57:23;;;;;;;8.50;4.35;;;23.10;62.40;;;;;;5101080;28;20071;-80
2023/07/27 08:59:51;;;;;;;6.90;4.10;;;23.30;62.00;;;;;;5111268;28;20738;-80
2023/07/27 09:02:18;;;;;;;12.10;4.00;;;23.40;62.90;;;;;;5100497;28;20393;-80
2023/07/27 09:04:45;;;;;;;7.60;4.13;;;23.50;61.50;;;;;;5102776;28;20044;-80
2023/07/27 09:07:12;;;;;;;7.32;3.42;;;23.50;61.80;;;;;;5109158;28;20389;-80
2023/07/27 09:09:39;;;;;;;8.10;3.15;;;23.70;62.00;;;;;;5111011;28;20062;-80
2023/07/27 09:12:07;;;;;;;5.85;3.53;;;24.00;62.70;;;;;;5103325;28;20058;-80
2023/07/27 09:14:35;;;;;;;8.55;3.30;;;24.10;58.60;;;;;;5103534;28;20457;-80
2023/07/27 09:17:02;;;;;;;8.27;3.95;;;24.30;61.20;;;;;;5108535;28;20536;-80
2023/07/27 09:19:35;;;;;;;7.95;3.60;;;24.70;58.10;;;;;;5110905;28;20055;-80
2023/07/27 09:22:02;;;;;;;10.90;3.95;;;24.40;58.30;;;;;;5107216;28;20495;-80
2023/07/27 09:24:34;;;;;;;6.30;3.33;;;24.10;59.70;;;;;;5099293;28;20078;-80
2023/07/27 09:27:10;;;;;;;4.63;2.80;;;23.90;58.60;;;;;;5110644;28;20058;-80
2023/07/27 09:29:37;;;;;;;5.75;3.22;;;23.50;59.40;;;;;;5097746;28;20442;-81
2023/07/27 09:32:09;;;;;;;9.75;3.47;;;23.50;60.30;;;;;;5103153;28;20152;-80
2023/07/27 09:34:36;;;;;;;5.35;3.17;;;23.30;60.40;;;;;;5110108;28;20047;-80
2023/07/27 09:37:05;;;;;;;8.60;3.92;;;23.10;59.30;;;;;;5107869;28;20101;-81
2023/07/27 09:39:33;;;;;;;6.88;3.10;;;23.30;60.30;;;;;;5110287;28;20733;-80
2023/07/27 09:42:00;;;;;;;9.07;3.40;;;23.50;59.20;;;;;;5109566;28;20048;-80
2023/07/27 09:44:27;;;;;;;14.15;3.65;;;23.70;60.00;;;;;;5106544;28;20486;-81
2023/07/27 09:46:54;;;;;;;7.65;3.72;;;23.90;60.70;;;;;;5108913;28;20048;-81
2023/07/27 09:49:21;;;;;;;10.48;3.50;;;23.80;60.60;;;;;;5105230;28;20119;-81
2023/07/27 09:51:50;;;;;;;9.02;3.20;;;23.80;59.40;;;;;;5103128;28;20051;-80
2023/07/27 09:54:19;;;;;;;6.53;3.00;;;23.60;57.60;;;;;;5097244;28;20043;-81
2023/07/27 09:56:46;;;;;;;9.75;3.63;;;23.60;57.60;;;;;;5110756;28;20048;-79
2023/07/27 09:59:13;;;;;;;7.22;3.22;;;23.20;58.60;;;;;;5102794;28;20077;-79
2023/07/27 10:01:41;;;;;;;12.32;3.45;;;22.90;60.20;;;;;;5103373;28;20518;-80
2023/07/27 10:04:08;;;;;;;6.75;4.03;;;22.50;59.80;;;;;;5103625;28;20047;-80
2023/07/27 10:06:35;;;;;;;9.35;3.50;;;22.00;60.60;;;;;;5100541;28;20601;-83
2023/07/27 10:09:16;;;;;;;7.30;3.60;;;21.60;62.70;;;;;;5101477;28;20109;-83
2023/07/27 10:11:59;;;;;;;19.20;4.97;;;21.60;63.40;;;;;;5104957;28;20047;-82
2023/07/27 10:14:28;;;;;;;9.23;4.47;;;21.30;63.00;;;;;;5096755;28;20051;-83
2023/07/27 10:17:07;;;;;;;7.95;4.43;;;21.00;64.10;;;;;;5105545;28;20052;-82
2023/07/27 10:19:52;;;;;;;10.13;4.32;;;20.70;64.20;;;;;;5110493;28;20059;-82
2023/07/27 10:22:19;;;;;;;8.55;4.28;;;20.40;65.70;;;;;;5094786;28;20135;-82
2023/07/27 10:24:56;;;;;;;13.50;4.57;;;20.10;65.70;;;;;;5106141;28;20071;-83
2023/07/27 10:27:23;;;;;;;13.73;5.03;;;19.90;67.60;;;;;;5099768;28;20050;-82
2023/07/27 10:30:12;;;;;;;8.57;4.65;;;19.70;72.50;;;;;;5101698;28;20900;-82
2023/07/27 10:33:06;;;;;;;9.33;5.40;;;19.50;75.10;;;;;;5098633;28;20057;-82
2023/07/27 10:36:05;;;;;;;7.95;4.90;;;19.40;75.70;;;;;;5098417;28;20043;-81
2023/07/27 10:38:33;;;;;;;11.82;5.10;;;19.20;75.00;;;;;;5103362;28;20040;-82
2023/07/27 10:41:15;;;;;;;11.15;4.88;;;19.10;75.80;;;;;;5106183;28;20067;-82
2023/07/27 10:44:07;;;;;;;9.27;5.13;;;18.90;77.30;;;;;;5111145;28;20048;-81
2023/07/27 10:46:38;;;;;;;10.20;5.43;;;18.80;76.80;;;;;;5110067;28;20039;-82
2023/07/27 10:49:09;;;;;;;9.70;5.32;;;18.60;79.10;;;;;;5105687;28;20043;-82
2023/07/27 10:51:37;;;;;;;11.10;5.25;;;18.40;80.10;;;;;;5106559;28;20075;-82
2023/07/27 10:54:05;;;;;;;16.98;5.32;;;18.20;79.30;;;;;;5110232;28;20056;-82
2023/07/27 10:56:32;;;;;;;9.02;4.80;;;18.10;80.80;;;;;;5109464;28;20097;-82
2023/07/27 10:59:00;;;;;;;11.48;5.30;;;18.10;80.40;;;;;;5109358;28;20053;-82
2023/07/27 11:01:33;;;;;;;11.02;4.97;;;18.10;79.40;;;;;;5108267;28;20769;-82
2023/07/27 11:04:02;;;;;;;9.77;5.55;;;18.30;79.50;;;;;;5108079;28;20056;-81
2023/07/27 11:06:30;;;;;;;11.57;5.53;;;18.40;80.00;;;;;;5102720;28;20075;-81
2023/07/27 11:08:57;;;;;;;20.70;6.10;;;18.40;79.40;;;;;;5098465;28;20052;-82
2023/07/27 11:11:24;;;;;;;11.98;5.32;;;18.40;81.20;;;;;;5110068;28;20644;-82
2023/07/27 11:13:51;;;;;;;11.93;5.93;;;18.30;81.30;;;;;;5107592;28;20807;-82
2023/07/27 11:16:18;;;;;;;11.75;6.53;;;18.30;82.50;;;;;;5110043;28;20052;-82
2023/07/27 11:18:45;;;;;;;12.27;4.95;;;18.20;82.30;;;;;;5098758;28;20073;-82
2023/07/27 11:21:13;;;;;;;15.95;6.15;;;18.20;81.80;;;;;;5103471;28;20044;-82
2023/07/27 11:23:46;;;;;;;15.60;6.85;;;18.20;81.00;;;;;;5101255;28;20139;-82
2023/07/27 11:26:13;;;;;;;17.85;6.75;;;18.20;82.00;;;;;;5098370;28;20042;-82
2023/07/27 11:28:41;;;;;;;13.00;5.72;;;18.20;83.00;;;;;;5099054;28;20055;-83
2023/07/27 11:31:08;;;;;;;16.58;5.72;;;18.10;81.90;;;;;;5101365;28;20224;-81
2023/07/27 11:33:38;;;;;;;12.30;4.95;;;18.10;81.20;;;;;;5105861;28;20079;-83
2023/07/27 11:36:05;;;;;;;14.77;5.22;;;18.10;80.50;;;;;;5109628;28;20087;-83
2023/07/27 11:38:32;;;;;;;13.52;6.13;;;18.20;81.00;;;;;;5101667;28;20124;-83
2023/07/27 11:40:59;;;;;;;11.32;6.38;;;18.10;81.40;;;;;;5104785;28;21353;-83
2023/07/27 11:43:51;;;;;;;10.15;5.03;;;18.20;79.80;;;;;;5108576;28;20484;-83
2023/07/27 11:46:19;;;;;;;19.98;7.38;;;18.30;82.20;;;;;;5105242;28;20134;-83
2023/07/27 11:48:50;;;;;;;12.32;5.78;;;18.50;80.60;;;;;;5097330;28;20047;-83
2023/07/27 11:51:33;;;;;;;9.90;4.70;;;18.70;79.80;;;;;;5099062;28;20648;-83
2023/07/27 11:54:00;;;;;;;8.13;4.95;;;18.90;80.60;;;;;;5106719;28;20071;-83
2023/07/27 11:56:27;;;;;;;11.32;5.25;;;19.10;78.60;;;;;;5111986;28;20748;-83
2023/07/27 11:58:54;;;;;;;10.85;5.32;;;19.30;77.90;;;;;;5113160;28;20051;-83
2023/07/27 12:01:22;;;;;;;11.60;5.10;;;19.60;76.70;;;;;;5113071;28;20052;-83
2023/07/27 12:03:49;;;;;;;9.32;4.78;;;19.90;76.60;;;;;;5108917;28;20630;-83
2023/07/27 12:06:24;;;;;;;13.75;4.47;;;20.10;74.50;;;;;;5105165;28;20097;-83
2023/07/27 12:08:55;;;;;;;9.02;4.70;;;20.50;76.40;;;;;;5113344;28;20411;-83
2023/07/27 12:11:26;;;;;;;18.67;4.60;;;20.90;73.40;;;;;;5106211;28;20043;-82
2023/07/27 12:13:56;;;;;;;12.63;4.30;;;21.40;72.30;;;;;;5104766;28;20079;-83
2023/07/27 12:16:25;;;;;;;10.00;4.25;;;21.40;69.70;;;;;;5113014;28;20039;-83
2023/07/27 12:19:12;;;;;;;8.70;4.40;;;21.60;70.80;;;;;;5104314;27;20048;-81
2023/07/27 12:21:42;;;;;;;11.75;3.90;;;21.30;69.30;;;;;;5111258;28;20059;-83
2023/07/27 12:24:10;;;;;;;9.88;4.03;;;21.40;71.00;;;;;;5103157;28;20136;-83
2023/07/27 12:26:40;;;;;;;13.43;4.68;;;21.60;71.70;;;;;;5096718;28;20127;-83
2023/07/27 12:29:10;;;;;;;9.07;4.32;;;21.70;69.00;;;;;;5091507;28;20135;-83
2023/07/27 12:31:40;;;;;;;9.60;4.05;;;21.90;69.60;;;;;;5109446;28;20083;-83
2023/07/27 12:34:09;;;;;;;13.82;4.60;;;21.90;69.60;;;;;;5111394;28;20090;-81
2023/07/27 12:36:36;;;;;;;11.32;5.07;;;22.30;70.20;;;;;;5100684;28;20048;-81
2023/07/27 12:39:03;;;;;;;11.20;4.75;;;22.70;69.30;;;;;;5112922;28;20047;-79
2023/07/27 12:41:30;;;;;;;7.65;3.60;;;23.00;66.30;;;;;;5095237;28;20131;-81
2023/07/27 12:43:58;;;;;;;9.98;3.75;;;23.50;67.50;;;;;;5104797;28;20071;-80
2023/07/27 12:46:25;;;;;;;9.57;3.67;;;23.90;65.30;;;;;;5104651;28;20093;-80
2023/07/27 12:48:52;;;;;;;9.60;4.25;;;23.90;63.50;;;;;;5109293;28;20051;-81
2023/07/27 12:51:18;;;;;;;14.63;4.75;;;23.80;64.10;;;;;;5105507;28;20040;-80
2023/07/27 12:53:45;;;;;;;7.80;4.00;;;23.40;62.40;;;;;;5105045;28;20491;-80
2023/07/27 12:56:12;;;;;;;6.65;3.58;;;23.10;63.30;;;;;;5096408;28;20130;-81